Time;durP1;ratioP1;P1;durP2;ratioP2;P2;SDS_P1;SDS_P2;PMS_P1;PMS_P2;Temp;Humidity;BMP_temperature;BMP_pressure;BME280_temperature;BME280_humidity;BME280_pressure;Samples;Min_cycle;Max_cycle;Signal;HPM_P1;HPM_P2
2022/09/02 00:01:02;;;;;;;4.55;1.35;;;15.80;99.90;;;;;;5007831;28;20213;-74
2022/09/02 00:03:30;;;;;;;2.50;1.10;;;15.80;99.90;;;;;;5007859;28;20169;-73
2022/09/02 00:05:56;;;;;;;2.25;1.27;;;15.80;99.90;;;;;;5018248;28;20169;-71
2022/09/02 00:08:22;;;;;;;2.47;1.42;;;15.80;99.90;;;;;;5008429;28;20800;-71
2022/09/02 00:10:47;;;;;;;1.95;1.10;;;15.90;99.90;;;;;;5009498;28;20216;-71
2022/09/02 00:13:15;;;;;;;4.60;1.42;;;15.90;99.90;;;;;;5011973;28;20204;-71
2022/09/02 00:15:42;;;;;;;1.50;1.10;;;15.90;99.90;;;;;;5020015;28;20220;-71
2022/09/02 00:18:11;;;;;;;2.28;1.30;;;16.00;99.90;;;;;;5005204;28;20224;-71
2022/09/02 00:20:38;;;;;;;0.98;0.98;;;16.00;99.90;;;;;;5007053;28;20205;-71
2022/09/02 00:23:04;;;;;;;1.73;1.15;;;15.90;99.90;;;;;;5016323;28;20219;-71
2022/09/02 00:25:30;;;;;;;2.72;1.40;;;16.00;99.90;;;;;;5008070;28;20688;-71
2022/09/02 00:27:56;;;;;;;3.22;1.10;;;16.00;99.90;;;;;;5007543;28;20221;-71
2022/09/02 00:30:22;;;;;;;1.55;1.23;;;15.90;99.90;;;;;;5006102;28;20707;-73
2022/09/02 00:32:48;;;;;;;1.98;1.05;;;15.90;99.90;;;;;;5020777;28;20183;-72
2022/09/02 00:35:13;;;;;;;1.55;1.02;;;16.00;99.90;;;;;;5003020;28;20225;-71
2022/09/02 00:37:39;;;;;;;1.45;1.02;;;16.00;99.90;;;;;;5011002;28;20683;-71
2022/09/02 00:40:06;;;;;;;1.52;1.02;;;16.00;99.90;;;;;;5014190;28;20247;-71
2022/09/02 00:42:32;;;;;;;2.13;1.08;;;15.90;99.90;;;;;;5015115;28;20683;-71
2022/09/02 00:44:58;;;;;;;3.95;1.05;;;15.90;99.90;;;;;;5008774;28;20260;-71
2022/09/02 00:47:24;;;;;;;2.70;1.20;;;15.90;99.90;;;;;;5011271;28;20292;-71
2022/09/02 00:49:53;;;;;;;2.25;1.30;;;15.80;99.90;;;;;;5016136;28;20770;-71
2022/09/02 00:52:32;;;;;;;1.92;1.00;;;15.80;99.90;;;;;;5006352;28;20210;-71
2022/09/02 00:55:12;;;;;;;2.50;1.10;;;15.80;99.90;;;;;;5011366;28;20590;-71
2022/09/02 00:57:43;;;;;;;2.15;1.42;;;15.80;99.90;;;;;;5012928;28;20296;-71
2022/09/02 01:00:16;;;;;;;4.65;1.10;;;15.80;99.90;;;;;;5001971;28;20246;-72
2022/09/02 01:02:41;;;;;;;2.03;1.15;;;15.80;99.90;;;;;;5010406;28;20200;-71
2022/09/02 01:05:11;;;;;;;4.57;2.90;;;15.80;99.90;;;;;;5004523;28;20297;-71
2022/09/02 01:07:37;;;;;;;1.80;1.10;;;15.80;99.90;;;;;;5009907;28;20218;-71
2022/09/02 01:10:07;;;;;;;2.08;1.20;;;15.90;99.90;;;;;;5005272;28;20230;-71
2022/09/02 01:12:34;;;;;;;2.00;1.00;;;15.80;99.90;;;;;;5011748;28;20201;-71
2022/09/02 01:15:01;;;;;;;2.00;1.60;;;15.80;99.90;;;;;;5019716;28;20231;-71
2022/09/02 01:17:27;;;;;;;1.20;1.10;;;15.90;99.90;;;;;;5014431;28;20217;-71
2022/09/02 01:19:59;;;;;;;3.30;1.88;;;15.90;99.90;;;;;;5013906;28;20231;-71
2022/09/02 01:22:30;;;;;;;1.90;1.30;;;16.00;99.90;;;;;;5010221;28;20590;-72
2022/09/02 01:25:01;;;;;;;1.45;1.10;;;16.00;99.90;;;;;;5011034;28;20351;-71
2022/09/02 01:27:27;;;;;;;1.50;0.85;;;16.00;99.90;;;;;;5014638;28;20291;-71
2022/09/02 01:29:54;;;;;;;2.70;1.08;;;16.00;99.90;;;;;;5006434;28;20299;-72
2022/09/02 01:32:21;;;;;;;3.38;1.20;;;16.00;99.90;;;;;;5016793;28;20292;-71
2022/09/02 01:34:47;;;;;;;6.75;5.43;;;16.00;99.90;;;;;;5007867;28;20208;-72
2022/09/02 01:37:13;;;;;;;2.45;1.45;;;15.90;99.90;;;;;;5005494;28;20305;-72
2022/09/02 01:39:39;;;;;;;1.80;1.17;;;15.90;99.90;;;;;;5015325;28;20259;-71
2022/09/02 01:42:05;;;;;;;1.15;1.00;;;15.90;99.90;;;;;;5020052;28;20227;-71
2022/09/02 01:44:32;;;;;;;2.03;1.48;;;15.90;99.90;;;;;;5008248;28;20233;-72
2022/09/02 01:46:57;;;;;;;2.10;1.38;;;16.00;99.90;;;;;;5013782;28;20212;-72
2022/09/02 01:49:23;;;;;;;3.17;1.15;;;15.90;99.90;;;;;;5012361;28;20197;-72
2022/09/02 01:51:52;;;;;;;1.42;0.80;;;15.90;99.90;;;;;;5008589;28;20213;-72
2022/09/02 01:54:17;;;;;;;1.98;1.20;;;15.90;99.90;;;;;;5012859;28;20189;-71
2022/09/02 01:56:44;;;;;;;1.48;1.05;;;15.90;99.90;;;;;;5010761;28;20173;-72
2022/09/02 01:59:12;;;;;;;2.65;1.60;;;16.00;99.90;;;;;;5018416;28;20295;-72
2022/09/02 02:01:37;;;;;;;2.30;1.50;;;15.90;99.90;;;;;;5011402;28;20280;-71
2022/09/02 02:04:03;;;;;;;1.60;1.00;;;15.90;99.90;;;;;;5016648;28;20251;-71
2022/09/02 02:06:29;;;;;;;3.67;1.45;;;15.90;99.90;;;;;;5017313;28;20217;-72
2022/09/02 02:08:54;;;;;;;4.30;2.95;;;15.90;99.90;;;;;;5011909;28;20288;-72
2022/09/02 02:11:23;;;;;;;2.63;2.20;;;15.90;99.90;;;;;;5010434;28;20232;-72
2022/09/02 02:13:49;;;;;;;1.48;1.20;;;15.80;99.90;;;;;;5011554;28;20683;-72
2022/09/02 02:16:15;;;;;;;1.33;1.23;;;15.80;99.90;;;;;;5018018;28;20198;-72
2022/09/02 02:18:41;;;;;;;1.73;1.38;;;15.70;99.90;;;;;;5028411;23;20247;-70
2022/09/02 02:21:07;;;;;;;2.90;2.35;;;15.70;99.90;;;;;;5026810;28;20646;-70
2022/09/02 02:23:33;;;;;;;3.10;1.27;;;15.70;99.90;;;;;;5031285;28;20205;-70
2022/09/02 02:25:58;;;;;;;1.35;1.08;;;15.70;99.90;;;;;;5031273;28;20220;-71
2022/09/02 02:28:25;;;;;;;2.55;1.67;;;15.60;99.90;;;;;;5024818;28;20213;-71
2022/09/02 02:30:51;;;;;;;5.70;2.67;;;15.60;99.90;;;;;;5010855;28;20209;-70
2022/09/02 02:33:16;;;;;;;3.67;1.30;;;15.50;99.90;;;;;;5012453;28;20284;-71
2022/09/02 02:35:42;;;;;;;1.95;1.00;;;15.50;99.90;;;;;;5012958;28;20531;-70
2022/09/02 02:38:09;;;;;;;3.00;2.15;;;15.60;99.90;;;;;;5012304;28;20601;-71
2022/09/02 02:40:35;;;;;;;1.95;1.55;;;15.60;99.90;;;;;;5012231;28;20239;-71
2022/09/02 02:43:00;;;;;;;2.72;1.90;;;15.50;99.90;;;;;;5012343;28;20212;-71
2022/09/02 02:45:26;;;;;;;3.10;1.48;;;15.50;99.90;;;;;;5012440;28;20177;-71
2022/09/02 02:47:52;;;;;;;1.55;1.15;;;15.50;99.90;;;;;;5011479;28;20332;-71
2022/09/02 02:50:20;;;;;;;3.10;2.25;;;15.50;99.90;;;;;;5011363;28;20204;-71
2022/09/02 02:52:46;;;;;;;2.65;1.67;;;15.50;99.90;;;;;;5016142;28;20210;-71
2022/09/02 02:55:12;;;;;;;2.15;1.65;;;15.40;99.90;;;;;;5026943;28;20711;-71
2022/09/02 02:57:39;;;;;;;2.03;1.70;;;15.50;99.90;;;;;;5025168;28;20276;-71
2022/09/02 03:00:26;;;;;;;2.38;1.55;;;15.40;99.90;;;;;;5010965;28;20231;-72
2022/09/02 03:03:02;;;;;;;2.25;1.55;;;15.40;99.90;;;;;;5010108;28;20212;-71
2022/09/02 03:05:28;;;;;;;2.40;1.58;;;15.30;99.90;;;;;;5012203;28;20208;-71
2022/09/02 03:07:54;;;;;;;2.03;1.45;;;15.30;99.90;;;;;;5011913;28;20232;-71
2022/09/02 03:10:22;;;;;;;4.10;2.60;;;15.20;99.90;;;;;;5011750;28;20682;-71
2022/09/02 03:12:48;;;;;;;3.33;1.25;;;15.20;99.90;;;;;;5010846;28;20242;-71
2022/09/02 03:15:16;;;;;;;3.00;2.05;;;15.20;99.90;;;;;;5011417;28;20227;-72
2022/09/02 03:17:46;;;;;;;3.88;1.58;;;15.20;99.90;;;;;;5012370;28;20173;-71
2022/09/02 03:20:14;;;;;;;2.08;1.52;;;15.20;99.90;;;;;;5010521;28;20715;-72
2022/09/02 03:22:44;;;;;;;1.67;1.23;;;15.30;99.90;;;;;;5011651;28;20201;-71
2022/09/02 03:25:12;;;;;;;1.67;1.48;;;15.30;99.90;;;;;;5010284;28;20250;-72
2022/09/02 03:27:39;;;;;;;2.65;1.90;;;15.20;99.90;;;;;;5006577;28;20213;-72
2022/09/02 03:30:10;;;;;;;1.95;1.50;;;15.20;99.90;;;;;;5009902;28;20838;-71
2022/09/02 03:32:36;;;;;;;3.08;1.50;;;15.20;99.90;;;;;;5011848;28;20209;-71
2022/09/02 03:35:06;;;;;;;2.20;1.38;;;15.20;99.90;;;;;;5011495;28;20216;-71
2022/09/02 03:37:32;;;;;;;2.80;1.80;;;15.10;99.90;;;;;;5009546;28;20233;-71
2022/09/02 03:39:58;;;;;;;3.60;1.50;;;15.00;99.90;;;;;;5008311;28;20259;-72
2022/09/02 03:42:23;;;;;;;3.78;1.75;;;15.00;99.90;;;;;;5010130;28;20212;-72
2022/09/02 03:44:49;;;;;;;2.88;1.35;;;15.00;99.90;;;;;;5006352;28;20189;-72
2022/09/02 03:47:16;;;;;;;5.03;2.85;;;14.90;99.90;;;;;;5008972;28;20216;-72
2022/09/02 03:49:42;;;;;;;4.20;2.47;;;15.00;99.90;;;;;;5009723;28;20221;-72
2022/09/02 03:52:07;;;;;;;3.83;2.80;;;14.90;99.90;;;;;;5010755;28;20217;-72
2022/09/02 03:54:33;;;;;;;3.08;1.63;;;14.90;99.90;;;;;;5011176;28;20300;-71
2022/09/02 03:56:59;;;;;;;1.63;1.35;;;14.80;99.90;;;;;;5011300;28;20193;-72
2022/09/02 03:59:24;;;;;;;2.85;1.88;;;14.80;99.90;;;;;;5009405;28;20209;-72
2022/09/02 04:01:50;;;;;;;6.75;2.70;;;14.90;99.90;;;;;;5011033;28;20213;-72
2022/09/02 04:04:17;;;;;;;3.38;1.40;;;14.80;99.90;;;;;;5010911;28;20212;-72
2022/09/02 04:06:43;;;;;;;3.17;2.08;;;14.80;99.90;;;;;;5010916;28;20313;-72
2022/09/02 04:09:09;;;;;;;2.63;1.88;;;14.80;99.90;;;;;;5010530;28;20288;-72
2022/09/02 04:11:35;;;;;;;5.72;1.90;;;14.80;99.90;;;;;;5011171;28;20184;-72
2022/09/02 04:14:01;;;;;;;5.32;2.30;;;14.80;99.90;;;;;;5008734;28;20343;-72
2022/09/02 04:16:27;;;;;;;4.25;2.90;;;14.80;99.90;;;;;;5010720;28;20239;-72
2022/09/02 04:19:00;;;;;;;3.83;2.35;;;14.70;99.90;;;;;;5010513;28;20236;-72
2022/09/02 04:21:26;;;;;;;3.88;2.33;;;14.70;99.90;;;;;;5010093;28;20181;-72
2022/09/02 04:23:52;;;;;;;4.47;1.77;;;14.70;99.90;;;;;;5010947;28;20193;-70
2022/09/02 04:26:19;;;;;;;4.50;2.75;;;14.80;99.90;;;;;;5006724;28;20215;-70
2022/09/02 04:28:46;;;;;;;3.90;3.38;;;14.80;99.90;;;;;;5010776;28;20217;-71
2022/09/02 04:31:14;;;;;;;5.53;3.65;;;14.80;99.90;;;;;;5006826;28;20236;-71
2022/09/02 04:33:40;;;;;;;3.25;1.90;;;14.80;99.90;;;;;;5010592;28;20761;-71
2022/09/02 04:36:08;;;;;;;4.20;1.50;;;14.80;99.90;;;;;;5003038;28;20208;-70
2022/09/02 04:38:34;;;;;;;2.70;1.92;;;14.80;99.90;;;;;;5010542;28;20216;-70
2022/09/02 04:41:00;;;;;;;2.85;2.35;;;14.80;99.90;;;;;;5010201;28;20236;-71
2022/09/02 04:43:26;;;;;;;4.72;2.25;;;14.70;99.90;;;;;;5006373;28;20237;-71
2022/09/02 04:45:51;;;;;;;5.00;3.40;;;14.70;99.90;;;;;;5006057;28;20290;-70
2022/09/02 04:48:17;;;;;;;5.10;2.90;;;14.70;99.90;;;;;;5008999;28;20251;-71
2022/09/02 04:50:44;;;;;;;6.25;3.40;;;14.70;99.90;;;;;;5013496;28;20173;-71
2022/09/02 04:53:10;;;;;;;5.38;3.35;;;14.70;99.90;;;;;;5009019;28;20266;-71
2022/09/02 04:55:41;;;;;;;3.25;2.30;;;14.70;99.90;;;;;;5009100;28;20201;-70
2022/09/02 04:58:07;;;;;;;3.88;2.00;;;14.80;99.90;;;;;;5014513;28;20220;-71
2022/09/02 05:00:33;;;;;;;4.57;1.92;;;14.80;99.90;;;;;;5007486;28;20229;-71
2022/09/02 05:02:58;;;;;;;4.10;2.40;;;14.90;99.90;;;;;;5014556;28;20181;-70
2022/09/02 05:05:24;;;;;;;5.13;2.63;;;14.90;99.90;;;;;;5014305;28;20259;-71
2022/09/02 05:07:50;;;;;;;3.70;2.13;;;15.00;99.90;;;;;;5014122;28;20216;-71
2022/09/02 05:10:15;;;;;;;3.85;2.28;;;15.00;99.90;;;;;;5012589;28;20205;-71
2022/09/02 05:12:41;;;;;;;3.25;2.15;;;15.10;99.90;;;;;;5014211;28;21006;-71
2022/09/02 05:15:09;;;;;;;6.82;2.20;;;15.10;99.90;;;;;;5014629;28;20192;-71
2022/09/02 05:17:35;;;;;;;3.53;1.65;;;15.20;99.90;;;;;;5014303;28;20205;-71
2022/09/02 05:20:03;;;;;;;4.28;2.13;;;15.20;99.90;;;;;;5010015;28;20259;-71
2022/09/02 05:22:28;;;;;;;3.67;1.83;;;15.20;99.90;;;;;;5012406;28;20220;-72
2022/09/02 05:24:55;;;;;;;4.15;2.78;;;15.20;99.90;;;;;;5014045;28;20208;-71
2022/09/02 05:27:22;;;;;;;3.50;2.33;;;15.30;99.90;;;;;;5007589;28;20247;-72
2022/09/02 05:29:48;;;;;;;4.72;2.13;;;15.30;99.90;;;;;;5011701;28;20246;-71
2022/09/02 05:32:14;;;;;;;3.20;1.80;;;15.30;99.90;;;;;;5013911;28;20682;-72
2022/09/02 05:34:39;;;;;;;4.82;1.73;;;15.40;99.90;;;;;;5010592;28;20212;-72
2022/09/02 05:37:05;;;;;;;4.28;2.10;;;15.50;99.90;;;;;;5008393;28;20223;-72
2022/09/02 05:39:31;;;;;;;3.00;2.35;;;15.50;99.90;;;;;;5009695;28;20216;-72
2022/09/02 05:41:57;;;;;;;2.85;1.60;;;15.60;99.90;;;;;;5012624;28;20208;-72
2022/09/02 05:44:22;;;;;;;3.42;1.83;;;15.80;99.90;;;;;;5008009;28;20205;-71
2022/09/02 05:46:48;;;;;;;5.53;2.58;;;15.90;99.90;;;;;;5009971;28;20228;-72
2022/09/02 05:49:16;;;;;;;5.18;1.88;;;15.90;99.90;;;;;;5011668;28;20319;-72
2022/09/02 05:51:45;;;;;;;3.53;1.80;;;15.80;99.90;;;;;;5012200;28;20211;-71
2022/09/02 05:54:18;;;;;;;3.80;1.98;;;15.90;99.90;;;;;;5005131;28;20178;-71
2022/09/02 05:56:45;;;;;;;6.43;1.88;;;16.10;99.90;;;;;;5013824;28;20170;-71
2022/09/02 05:59:12;;;;;;;3.95;1.90;;;16.30;99.90;;;;;;5013156;28;20759;-72
2022/09/02 06:01:38;;;;;;;3.05;1.75;;;16.50;99.90;;;;;;5010262;28;20288;-72
2022/09/02 06:04:05;;;;;;;3.78;2.10;;;16.60;99.90;;;;;;5011237;28;20319;-71
2022/09/02 06:06:31;;;;;;;7.75;2.30;;;16.50;99.90;;;;;;5013281;28;20213;-71
2022/09/02 06:08:58;;;;;;;3.30;1.88;;;16.30;99.90;;;;;;5013014;28;20279;-71
2022/09/02 06:11:24;;;;;;;3.03;2.20;;;16.50;99.90;;;;;;5010978;28;20748;-72
2022/09/02 06:13:51;;;;;;;4.18;1.88;;;16.80;99.90;;;;;;5012954;28;20224;-70
2022/09/02 06:16:19;;;;;;;4.10;2.00;;;16.70;99.90;;;;;;5012802;28;20691;-71
2022/09/02 06:18:46;;;;;;;3.70;2.08;;;16.70;99.90;;;;;;5009076;28;20729;-71
2022/09/02 06:21:13;;;;;;;5.03;2.47;;;16.70;99.90;;;;;;5008387;28;20184;-71
2022/09/02 06:23:39;;;;;;;5.00;2.22;;;16.70;99.90;;;;;;5012023;28;20224;-71
2022/09/02 06:26:07;;;;;;;7.32;2.55;;;16.50;99.90;;;;;;5011312;28;20232;-70
2022/09/02 06:28:34;;;;;;;5.28;2.47;;;16.60;99.90;;;;;;5010412;28;20216;-71
2022/09/02 06:31:05;;;;;;;3.17;1.70;;;17.10;99.90;;;;;;5007634;28;20270;-71
2022/09/02 06:33:31;;;;;;;4.82;2.33;;;17.40;99.90;;;;;;5012774;28;20296;-71
2022/09/02 06:35:57;;;;;;;3.85;1.90;;;17.40;99.90;;;;;;5013201;28;20277;-71
2022/09/02 06:38:22;;;;;;;4.43;2.47;;;17.40;99.90;;;;;;5008855;28;20202;-71
2022/09/02 06:40:51;;;;;;;7.13;2.08;;;17.60;99.90;;;;;;5009811;28;20296;-71
2022/09/02 06:43:16;;;;;;;6.18;2.75;;;19.50;99.90;;;;;;5012332;28;20227;-71
2022/09/02 06:45:43;;;;;;;7.35;1.95;;;21.20;99.90;;;;;;5010022;28;20687;-71
2022/09/02 06:48:09;;;;;;;3.65;2.10;;;22.70;99.90;;;;;;5012170;28;20219;-71
2022/09/02 06:50:42;;;;;;;4.90;2.45;;;23.30;99.90;;;;;;5024368;28;20157;-71
2022/09/02 06:53:10;;;;;;;2.95;1.88;;;21.50;99.90;;;;;;5021026;28;20201;-71
2022/09/02 06:55:38;;;;;;;5.03;2.28;;;21.80;99.90;;;;;;5018743;28;20229;-70
2022/09/02 06:58:03;;;;;;;4.90;2.53;;;21.90;99.90;;;;;;5013076;28;20209;-71
2022/09/02 07:00:30;;;;;;;6.05;3.38;;;22.00;99.90;;;;;;5012907;28;20220;-71
2022/09/02 07:05:43;;;;;;;5.32;2.30;;;20.80;99.90;;;;;;5009618;28;20252;-71
2022/09/02 07:08:09;;;;;;;3.13;2.63;;;19.80;99.90;;;;;;5011128;28;20228;-71
2022/09/02 07:10:38;;;;;;;4.90;2.40;;;19.90;99.90;;;;;;5011588;28;20201;-72
2022/09/02 07:13:06;;;;;;;4.90;2.30;;;21.80;99.90;;;;;;5009571;28;20266;-71
2022/09/02 07:15:32;;;;;;;5.45;2.47;;;23.90;99.90;;;;;;5010957;28;20679;-72
2022/09/02 07:17:58;;;;;;;4.78;2.38;;;25.30;99.90;;;;;;5012296;28;20563;-71
2022/09/02 07:20:23;;;;;;;8.18;3.28;;;25.60;99.90;;;;;;5006488;28;20217;-72
2022/09/02 07:22:49;;;;;;;7.65;2.70;;;26.60;99.90;;;;;;5011748;28;20216;-71
2022/09/02 07:25:16;;;;;;;5.45;2.60;;;26.70;99.90;;;;;;5012008;28;20216;-71
2022/09/02 07:27:42;;;;;;;3.13;2.75;;;27.00;99.90;;;;;;5011335;28;20268;-72
2022/09/02 07:30:09;;;;;;;5.53;2.45;;;27.40;99.90;;;;;;5005990;28;20570;-72
2022/09/02 07:32:36;;;;;;;3.08;1.70;;;27.00;99.90;;;;;;5011883;28;20173;-71
2022/09/02 07:35:05;;;;;;;5.70;2.10;;;26.90;99.90;;;;;;5008895;28;20224;-72
2022/09/02 07:37:31;;;;;;;4.13;2.22;;;27.10;99.90;;;;;;5010375;28;20201;-72
2022/09/02 07:39:57;;;;;;;4.75;2.10;;;27.30;99.90;;;;;;5006920;28;20210;-72
2022/09/02 07:42:23;;;;;;;3.88;2.10;;;28.20;99.90;;;;;;5010289;28;20605;-72
2022/09/02 07:44:49;;;;;;;3.60;2.67;;;27.80;99.90;;;;;;5008809;28;20169;-72
2022/09/02 07:47:14;;;;;;;3.97;2.30;;;27.60;99.90;;;;;;5008937;28;20299;-72
2022/09/02 07:49:40;;;;;;;3.90;2.13;;;27.30;99.90;;;;;;5010957;28;20215;-72
2022/09/02 07:52:06;;;;;;;6.00;3.50;;;28.10;99.90;;;;;;5009229;28;20213;-72
2022/09/02 07:54:31;;;;;;;4.20;2.72;;;28.60;99.90;;;;;;5008151;28;20247;-72
2022/09/02 07:56:58;;;;;;;4.32;2.83;;;28.80;98.90;;;;;;5011413;28;20649;-72
2022/09/02 07:59:23;;;;;;;6.47;2.70;;;28.30;98.90;;;;;;5009272;28;20227;-71
2022/09/02 08:01:50;;;;;;;5.53;2.70;;;29.00;99.00;;;;;;5006479;28;20575;-71
2022/09/02 08:04:17;;;;;;;6.55;2.40;;;29.30;98.20;;;;;;5002697;28;20217;-71
2022/09/02 08:06:43;;;;;;;3.67;2.60;;;28.30;98.00;;;;;;4999376;28;20591;-72
2022/09/02 08:09:10;;;;;;;5.90;2.90;;;26.80;99.90;;;;;;4998086;28;20206;-71
2022/09/02 08:11:38;;;;;;;5.45;1.88;;;27.00;99.90;;;;;;5006352;28;20173;-72
2022/09/02 08:14:06;;;;;;;3.53;1.80;;;27.10;99.90;;;;;;5007263;28;20276;-71
2022/09/02 08:16:31;;;;;;;5.45;2.10;;;27.60;99.90;;;;;;5010957;28;20204;-72
2022/09/02 08:18:57;;;;;;;5.38;1.88;;;28.00;99.70;;;;;;5033686;23;20225;-69
2022/09/02 08:21:24;;;;;;;4.30;1.95;;;27.60;99.30;;;;;;5018493;28;20192;-69
2022/09/02 08:23:50;;;;;;;4.25;1.55;;;28.50;98.90;;;;;;4998635;28;20210;-69
2022/09/02 08:26:16;;;;;;;4.07;1.65;;;28.50;98.80;;;;;;4997311;28;20205;-70
2022/09/02 08:28:42;;;;;;;3.75;2.42;;;27.70;98.50;;;;;;5000790;28;20213;-69
2022/09/02 08:31:08;;;;;;;2.42;1.20;;;26.70;99.90;;;;;;5006188;28;20235;-68
2022/09/02 08:33:34;;;;;;;3.47;1.60;;;27.10;99.90;;;;;;5015010;28;20569;-69
2022/09/02 08:36:09;;;;;;;2.88;1.70;;;27.00;99.80;;;;;;5000378;28;20181;-69
2022/09/02 08:38:35;;;;;;;2.42;1.52;;;27.40;99.90;;;;;;5016362;28;20218;-69
2022/09/02 08:41:01;;;;;;;3.50;1.88;;;28.00;99.30;;;;;;5015424;28;20702;-70
2022/09/02 08:43:38;;;;;;;2.20;1.10;;;27.90;98.60;;;;;;5023019;28;20305;-69
2022/09/02 08:46:08;;;;;;;2.15;1.58;;;27.60;98.40;;;;;;4998818;28;20757;-70
2022/09/02 08:48:51;;;;;;;3.85;1.48;;;27.90;99.00;;;;;;4997959;28;20579;-69
2022/09/02 08:51:48;;;;;;;4.68;1.98;;;27.90;99.20;;;;;;4994494;28;20612;-69
2022/09/02 08:54:44;;;;;;;2.28;1.58;;;26.90;98.90;;;;;;5018000;28;20755;-70
2022/09/02 08:57:11;;;;;;;4.93;1.83;;;26.80;99.90;;;;;;5018731;28;20222;-70
2022/09/02 08:59:37;;;;;;;2.88;1.35;;;27.70;99.40;;;;;;5017707;28;20196;-70
2022/09/02 09:02:20;;;;;;;2.40;1.13;;;26.80;98.70;;;;;;5002751;28;20209;-70
2022/09/02 09:05:13;;;;;;;1.77;1.20;;;26.20;98.40;;;;;;4997907;28;20591;-69
2022/09/02 09:07:56;;;;;;;3.20;1.10;;;26.20;99.10;;;;;;4999396;28;20217;-69
2022/09/02 09:10:55;;;;;;;1.63;1.08;;;26.10;99.90;;;;;;4996389;28;20231;-69
2022/09/02 09:13:40;;;;;;;3.85;1.45;;;26.30;99.90;;;;;;4999465;28;20205;-70
2022/09/02 09:16:40;;;;;;;4.45;1.38;;;25.40;99.90;;;;;;4996567;28;20213;-70
2022/09/02 09:19:12;;;;;;;3.28;1.52;;;25.30;99.90;;;;;;4997138;28;20280;-69
2022/09/02 09:21:39;;;;;;;1.52;1.27;;;24.40;99.90;;;;;;4996431;28;20228;-70
2022/09/02 09:24:26;;;;;;;3.10;1.17;;;24.50;99.90;;;;;;4999919;28;20174;-69
2022/09/02 09:26:53;;;;;;;6.10;0.90;;;24.50;99.90;;;;;;4993846;28;20588;-71
2022/09/02 09:29:19;;;;;;;1.17;1.08;;;24.60;99.90;;;;;;4998056;28;20216;-69
2022/09/02 09:31:53;;;;;;;3.50;1.17;;;24.30;99.90;;;;;;5015141;28;20204;-69
2022/09/02 09:34:18;;;;;;;1.20;1.10;;;24.10;99.90;;;;;;5007959;28;20202;-70
2022/09/02 09:36:47;;;;;;;3.90;1.83;;;23.70;99.90;;;;;;5004996;28;20594;-69
2022/09/02 09:39:44;;;;;;;1.05;0.93;;;24.10;99.90;;;;;;5002814;28;20210;-70
2022/09/02 09:42:13;;;;;;;2.08;0.70;;;23.50;99.90;;;;;;5000091;28;21067;-70
2022/09/02 09:44:45;;;;;;;1.45;1.13;;;23.10;99.90;;;;;;5005610;28;20224;-67
2022/09/02 09:47:18;;;;;;;0.95;0.82;;;22.60;99.90;;;;;;4999868;28;20719;-69
2022/09/02 09:49:45;;;;;;;1.48;1.00;;;22.50;99.90;;;;;;5002469;28;20632;-70
2022/09/02 09:52:15;;;;;;;2.03;1.27;;;22.80;99.90;;;;;;5002083;28;20288;-69
2022/09/02 09:54:41;;;;;;;1.05;0.90;;;22.70;99.90;;;;;;4999119;28;20747;-69
2022/09/02 09:57:18;;;;;;;0.93;0.70;;;23.10;99.90;;;;;;5003058;28;20225;-69
2022/09/02 09:59:48;;;;;;;2.03;1.60;;;23.30;99.90;;;;;;5000101;28;20278;-69
2022/09/02 10:02:24;;;;;;;2.17;1.90;;;23.60;99.90;;;;;;5001057;28;20224;-71
2022/09/02 10:05:09;;;;;;;6.68;2.45;;;23.40;99.90;;;;;;5001595;28;20204;-70
2022/09/02 10:07:40;;;;;;;2.78;1.02;;;22.60;99.90;;;;;;5002150;28;20640;-69
2022/09/02 10:10:21;;;;;;;1.73;0.80;;;23.00;99.90;;;;;;5032619;28;20725;-69
2022/09/02 10:12:49;;;;;;;0.90;0.77;;;23.60;99.90;;;;;;4999943;28;20220;-69
2022/09/02 10:15:25;;;;;;;1.30;1.20;;;23.50;99.90;;;;;;5034607;28;20172;-69
2022/09/02 10:17:58;;;;;;;1.35;0.98;;;23.30;99.90;;;;;;4998364;28;20173;-70
2022/09/02 10:20:51;;;;;;;3.03;0.80;;;23.00;99.90;;;;;;5000104;28;20213;-70
2022/09/02 10:23:26;;;;;;;2.10;0.90;;;22.30;99.90;;;;;;5002195;28;20735;-70
2022/09/02 10:26:00;;;;;;;2.53;0.90;;;22.00;99.90;;;;;;4997915;28;20215;-69
2022/09/02 10:28:59;;;;;;;1.00;0.70;;;22.10;99.90;;;;;;5005023;28;20739;-71
2022/09/02 10:31:31;;;;;;;5.82;1.08;;;22.00;99.90;;;;;;5004702;28;20577;-69
2022/09/02 10:34:09;;;;;;;1.48;0.70;;;21.90;99.90;;;;;;4997836;28;20244;-68
2022/09/02 10:37:09;;;;;;;2.45;0.90;;;21.80;99.90;;;;;;5003544;28;20224;-70
2022/09/02 10:39:53;;;;;;;4.85;1.10;;;22.30;99.90;;;;;;4998575;28;20213;-69
2022/09/02 10:42:48;;;;;;;1.83;0.80;;;22.50;99.90;;;;;;5000339;28;20181;-69
2022/09/02 10:45:29;;;;;;;1.08;0.85;;;22.90;99.90;;;;;;5000287;28;20181;-70
2022/09/02 10:48:15;;;;;;;2.58;0.80;;;23.00;99.90;;;;;;5000249;28;20292;-69
2022/09/02 10:51:03;;;;;;;4.65;0.90;;;23.00;99.90;;;;;;5020213;28;20219;-70
2022/09/02 10:53:51;;;;;;;2.28;0.95;;;22.80;99.90;;;;;;5020412;28;20308;-70
2022/09/02 10:56:30;;;;;;;1.33;0.90;;;22.60;99.90;;;;;;5021489;28;20209;-70
2022/09/02 10:59:11;;;;;;;1.98;0.90;;;22.70;99.90;;;;;;5016331;28;20209;-69
2022/09/02 11:01:47;;;;;;;2.10;1.02;;;22.70;99.90;;;;;;5019809;28;20200;-70
2022/09/02 11:04:39;;;;;;;2.70;1.25;;;22.60;99.90;;;;;;5020327;28;20224;-69
2022/09/02 11:07:09;;;;;;;2.38;0.93;;;22.60;99.90;;;;;;5023193;28;20214;-70
2022/09/02 11:09:47;;;;;;;1.05;0.95;;;22.40;99.90;;;;;;5016576;28;20308;-70
2022/09/02 11:12:21;;;;;;;0.80;0.80;;;22.60;99.90;;;;;;4998616;28;20844;-69
2022/09/02 11:15:03;;;;;;;1.40;0.95;;;22.50;99.90;;;;;;5002126;28;20188;-71
2022/09/02 11:17:43;;;;;;;1.33;0.95;;;22.40;99.90;;;;;;4998664;28;20284;-70
2022/09/02 11:20:37;;;;;;;2.60;0.75;;;22.00;99.90;;;;;;4998307;28;20320;-69
2022/09/02 11:23:26;;;;;;;3.00;1.10;;;22.00;99.90;;;;;;4995374;28;20210;-70
2022/09/02 11:26:07;;;;;;;1.63;1.08;;;21.90;99.90;;;;;;4996243;28;20307;-70
2022/09/02 11:28:52;;;;;;;1.00;0.90;;;22.10;99.90;;;;;;4998753;28;20636;-70
2022/09/02 11:31:34;;;;;;;3.70;1.17;;;22.40;99.90;;;;;;5001782;28;20233;-71
2022/09/02 11:34:18;;;;;;;2.50;0.60;;;22.30;99.90;;;;;;4997011;28;20221;-69
2022/09/02 11:36:44;;;;;;;0.88;0.65;;;22.30;99.90;;;;;;5011827;28;20290;-70
2022/09/02 11:39:14;;;;;;;1.50;0.77;;;22.00;99.70;;;;;;5000872;28;20220;-68
2022/09/02 11:42:04;;;;;;;2.63;0.68;;;22.10;99.90;;;;;;5001649;28;20660;-68
2022/09/02 11:44:48;;;;;;;1.25;0.88;;;22.10;99.90;;;;;;4999889;28;20706;-69
2022/09/02 11:47:25;;;;;;;0.77;0.70;;;22.10;99.90;;;;;;5001756;28;20213;-70
2022/09/02 11:50:17;;;;;;;2.42;1.08;;;22.00;99.90;;;;;;4999607;28;20241;-69
2022/09/02 11:52:53;;;;;;;2.47;1.10;;;22.00;99.90;;;;;;5002521;28;20193;-69
2022/09/02 11:55:33;;;;;;;1.63;1.10;;;21.90;99.90;;;;;;4998508;28;20205;-70
2022/09/02 11:58:00;;;;;;;2.30;1.00;;;22.10;99.90;;;;;;4996670;28;20210;-70
2022/09/02 12:00:33;;;;;;;2.45;1.10;;;21.80;99.90;;;;;;4997646;28;20178;-69
2022/09/02 12:03:21;;;;;;;1.17;0.90;;;21.90;99.90;;;;;;5002502;28;20220;-69
2022/09/02 12:05:48;;;;;;;1.85;1.30;;;21.90;99.90;;;;;;5019199;28;20208;-70
2022/09/02 12:08:34;;;;;;;2.70;0.98;;;21.90;99.90;;;;;;5022247;28;20221;-70
2022/09/02 12:11:07;;;;;;;2.63;1.20;;;22.20;99.90;;;;;;5015770;28;20201;-70
2022/09/02 12:13:42;;;;;;;2.60;1.40;;;22.30;98.10;;;;;;5016782;28;20215;-70
2022/09/02 12:16:20;;;;;;;3.83;2.80;;;22.20;98.80;;;;;;5018367;28;20208;-70
2022/09/02 12:18:54;;;;;;;2.00;1.40;;;22.30;99.70;;;;;;5009994;28;20277;-70
2022/09/02 12:21:21;;;;;;;1.15;0.90;;;22.50;99.80;;;;;;4998776;28;20256;-70
2022/09/02 12:23:56;;;;;;;2.60;1.63;;;21.90;99.90;;;;;;5000689;28;20185;-70
2022/09/02 12:26:26;;;;;;;3.28;1.23;;;21.80;99.90;;;;;;4988924;28;20205;-70
2022/09/02 12:28:53;;;;;;;3.15;1.23;;;21.80;99.90;;;;;;4999182;28;20296;-69
2022/09/02 12:31:29;;;;;;;1.63;1.00;;;21.70;99.90;;;;;;5001659;28;20213;-69
2022/09/02 12:33:54;;;;;;;1.35;1.15;;;21.90;99.90;;;;;;4985929;28;20225;-68
2022/09/02 12:36:38;;;;;;;2.28;0.95;;;22.20;99.90;;;;;;5007622;28;20726;-70
2022/09/02 12:39:22;;;;;;;1.25;1.05;;;22.20;99.90;;;;;;5001115;28;20190;-70
2022/09/02 12:42:06;;;;;;;1.88;1.13;;;22.20;99.90;;;;;;4998224;28;20236;-70
2022/09/02 12:44:34;;;;;;;1.45;1.10;;;22.00;99.90;;;;;;4999592;28;20577;-70
2022/09/02 12:47:11;;;;;;;1.92;1.10;;;22.20;99.90;;;;;;4997552;28;20272;-70
2022/09/02 12:49:47;;;;;;;1.48;1.00;;;22.00;99.40;;;;;;4998492;28;20303;-70
2022/09/02 12:52:41;;;;;;;0.98;0.77;;;22.00;99.90;;;;;;4998784;28;20692;-69
2022/09/02 12:55:20;;;;;;;1.17;1.00;;;22.00;99.90;;;;;;4999244;28;20210;-70
2022/09/02 12:57:51;;;;;;;2.58;0.95;;;22.10;99.90;;;;;;4998554;28;20742;-71
2022/09/02 13:00:30;;;;;;;3.78;1.00;;;22.20;99.90;;;;;;4995954;28;20201;-70
2022/09/02 13:03:21;;;;;;;1.55;1.10;;;22.40;99.90;;;;;;5000246;28;20184;-69
2022/09/02 13:06:00;;;;;;;1.25;1.00;;;22.30;99.90;;;;;;5002092;28;20690;-70
2022/09/02 13:08:50;;;;;;;3.40;1.52;;;22.40;99.90;;;;;;4996196;28;20225;-70